Aurora Springs, Missouri
Current Conditions -  °F | °C
As of 6:55 PM on Saturday 22 Nov 2014 (Local Time) from KAIZ Reporting Station
Overcast Overcast  
Wind Chill: 12°   Ceiling: 1200
Heat Index: 12°   Visibility: 10mi
Dew Point:   Wind: 12mph
Humidity: 82%   Direction: 170°S
Pressure: 29.87"   Gusts: NA
Location:  38.333°N, 92.5524°W
Report Text: KAIZ 230055Z AUTO 17010KT 10SM BKN012 OVC100 12/09 A2987 RMK AO1
Loading
Personal Weather Stations






























Interactive Weather Map New forecast layout! Learn more

10-Day Weather Forecast

Advertisements
Track Severe Weather on mobile